Time;durP1;ratioP1;P1;durP2;ratioP2;P2;SDS_P1;SDS_P2;PMS_P1;PMS_P2;Temp;Humidity;BMP_temperature;BMP_pressure;BME280_temperature;BME280_humidity;BME280_pressure;Samples;Min_cycle;Max_cycle;Signal;HPM_P1;HPM_P2
2021/09/26 00:00:29;;;;;;;28.80;14.80;;;;;;;16.97;78.01;100624.60;113142;1197;22427;-59
2021/09/26 00:03:11;;;;;;;27.70;14.40;;;;;;;16.97;77.95;100627.84;113069;1197;24096;-59
2021/09/26 00:05:42;;;;;;;26.40;13.00;;;;;;;16.96;78.15;100623.48;113082;1197;23164;-58
2021/09/26 00:08:14;;;;;;;22.70;12.10;;;;;;;16.94;78.19;100629.89;113122;1197;22427;-57
2021/09/26 00:10:44;;;;;;;27.70;12.90;;;;;;;16.93;78.35;100622.66;113093;1197;22412;-58
2021/09/26 00:13:15;;;;;;;26.50;13.60;;;;;;;16.92;78.40;100625.33;113043;1197;22430;-58
2021/09/26 00:15:59;;;;;;;;;;;;;;;;;;;;;
2021/09/26 00:18:31;;;;;;;29.70;13.60;;;;;;;16.88;78.55;100623.84;113079;1190;24848;-58
2021/09/26 00:21:03;;;;;;;31.10;16.00;;;;;;;16.87;78.64;100625.79;113129;1197;25329;-58
2021/09/26 00:23:37;;;;;;;32.70;16.60;;;;;;;16.86;78.65;100622.91;113174;1197;24109;-58
2021/09/26 00:26:08;;;;;;;26.80;14.90;;;;;;;16.87;78.52;100617.98;113348;1189;22432;-58
2021/09/26 00:28:39;;;;;;;33.70;16.00;;;;;;;16.87;78.63;100616.77;113324;1197;24949;-57
2021/09/26 00:31:14;;;;;;;27.80;13.90;;;;;;;16.87;78.74;100618.60;113239;1197;22439;-59
2021/09/26 00:33:45;;;;;;;28.80;13.80;;;;;;;16.86;78.84;100611.48;113068;1190;22424;-59
2021/09/26 00:36:16;;;;;;;27.90;13.70;;;;;;;16.85;78.88;100612.98;113150;1197;24058;-57
2021/09/26 00:38:47;;;;;;;28.00;13.80;;;;;;;16.83;78.90;100611.64;113194;1197;22409;-58
2021/09/26 00:41:18;;;;;;;30.90;15.10;;;;;;;16.83;78.91;100614.09;113219;1197;22458;-58
2021/09/26 00:43:50;;;;;;;27.00;13.60;;;;;;;16.83;78.74;100615.48;113107;1197;23659;-56
2021/09/26 00:46:21;;;;;;;26.30;13.00;;;;;;;16.84;78.78;100618.36;113089;1197;22434;-57
2021/09/26 00:48:52;;;;;;;26.60;12.10;;;;;;;16.84;78.90;100619.74;113084;1197;22429;-58
2021/09/26 00:51:23;;;;;;;27.70;13.20;;;;;;;16.82;79.10;100618.23;113105;1190;24100;-57
2021/09/26 00:53:54;;;;;;;26.80;14.40;;;;;;;16.80;79.20;100620.98;113209;1197;24107;-57
2021/09/26 00:56:27;;;;;;;26.20;12.80;;;;;;;16.78;79.19;100617.27;113088;1197;22434;-55
2021/09/26 00:58:58;;;;;;;25.90;12.40;;;;;;;16.76;79.23;100619.64;113220;1190;25132;-56
2021/09/26 01:01:29;;;;;;;30.80;14.00;;;;;;;16.76;79.43;100621.70;113148;1197;22422;-55
2021/09/26 01:04:02;;;;;;;27.90;13.40;;;;;;;16.75;79.45;100622.40;113051;1190;22433;-58
2021/09/26 01:06:42;;;;;;;25.60;12.90;;;;;;;16.74;79.40;100624.81;113126;1197;25612;-58
2021/09/26 01:09:22;;;;;;;32.20;14.10;;;;;;;16.73;79.47;100621.64;113299;1197;22584;-58
2021/09/26 01:12:05;;;;;;;25.40;12.20;;;;;;;16.73;79.58;100624.30;113150;1197;24069;-58
2021/09/26 01:14:58;;;;;;;26.80;13.00;;;;;;;16.73;79.62;100623.28;113160;1198;25406;-57
2021/09/26 01:17:33;;;;;;;26.80;13.30;;;;;;;16.73;79.65;100627.48;113015;1189;22453;-57
2021/09/26 01:20:43;;;;;;;25.80;12.70;;;;;;;16.72;79.58;100624.97;113036;1197;22433;-56
2021/09/26 01:23:41;;;;;;;25.90;12.70;;;;;;;16.70;79.77;100622.45;113036;1197;22527;-57
2021/09/26 01:26:32;;;;;;;25.30;13.00;;;;;;;16.68;79.73;100623.12;113121;1190;22478;-56
2021/09/26 01:29:17;;;;;;;24.90;12.60;;;;;;;16.67;79.84;100624.77;113137;1190;24132;-59
2021/09/26 01:31:52;;;;;;;27.90;14.00;;;;;;;16.66;79.89;100624.82;113138;1174;25205;-58
2021/09/26 01:34:30;;;;;;;23.30;13.00;;;;;;;16.66;79.90;100628.34;113106;1197;22522;-56
2021/09/26 01:37:09;;;;;;;24.50;13.10;;;;;;;16.66;79.98;100629.42;113128;1197;25113;-57
2021/09/26 01:39:47;;;;;;;27.20;14.00;;;;;;;16.65;79.97;100628.41;113137;1197;24067;-55
2021/09/26 01:42:24;;;;;;;26.90;12.70;;;;;;;16.66;79.99;100631.57;113138;1190;24057;-58
2021/09/26 01:45:02;;;;;;;27.60;14.00;;;;;;;16.65;80.06;100630.04;113312;1197;24068;-60
2021/09/26 01:47:38;;;;;;;24.30;12.80;;;;;;;16.65;80.06;100629.95;113285;1197;25108;-57
2021/09/26 01:50:15;;;;;;;28.50;12.80;;;;;;;16.65;80.15;100630.77;113237;1197;22416;-59
2021/09/26 01:52:49;;;;;;;27.50;13.70;;;;;;;16.65;80.13;100628.82;113200;1197;22437;-58
2021/09/26 01:55:24;;;;;;;25.10;13.40;;;;;;;16.65;80.07;100631.33;113159;1197;25139;-59
2021/09/26 01:57:59;;;;;;;26.70;13.00;;;;;;;16.65;80.17;100634.50;113056;1197;22461;-58
2021/09/26 02:00:32;;;;;;;25.60;13.50;;;;;;;16.63;80.24;100633.32;113151;1197;22433;-56
2021/09/26 02:03:05;;;;;;;24.90;12.60;;;;;;;16.62;80.24;100637.02;113085;1197;22535;-58
2021/09/26 02:05:41;;;;;;;27.70;14.70;;;;;;;16.62;80.17;100636.65;113124;1197;24551;-58
2021/09/26 02:08:13;;;;;;;31.40;13.50;;;;;;;16.61;80.42;100639.02;113165;1197;22433;-59
2021/09/26 02:10:44;;;;;;;28.10;14.00;;;;;;;16.61;80.35;100641.98;113202;1190;24958;-57
2021/09/26 02:13:17;;;;;;;25.00;12.40;;;;;;;16.59;80.36;100641.56;113209;1190;22464;-57
2021/09/26 02:15:49;;;;;;;25.50;12.90;;;;;;;16.56;80.28;100645.52;113087;1189;25136;-55
2021/09/26 02:18:21;;;;;;;24.70;11.70;;;;;;;16.57;80.39;100651.05;113101;1197;22419;-56
2021/09/26 02:20:55;;;;;;;26.70;13.30;;;;;;;16.57;80.40;100648.60;113166;1197;23505;-56
2021/09/26 02:23:28;;;;;;;24.90;12.30;;;;;;;16.56;80.34;100647.10;113145;1189;22458;-56
2021/09/26 02:26:00;;;;;;;25.50;12.60;;;;;;;16.56;80.59;100651.55;113302;1190;22424;-59
2021/09/26 02:28:31;;;;;;;25.70;11.80;;;;;;;16.54;80.60;100654.27;113116;1197;24053;-58
2021/09/26 02:31:06;;;;;;;27.80;13.30;;;;;;;16.53;80.49;100653.60;113134;1197;22454;-61
2021/09/26 02:33:40;;;;;;;28.10;13.60;;;;;;;16.52;80.39;100653.91;113236;1197;24186;-58
2021/09/26 02:36:11;;;;;;;28.90;13.10;;;;;;;16.52;80.41;100644.48;113210;1197;22420;-58
2021/09/26 02:38:42;;;;;;;29.50;16.10;;;;;;;16.53;80.66;100647.91;113147;1197;24106;-58
2021/09/26 02:41:20;;;;;;;28.20;14.80;;;;;;;16.53;80.59;100648.58;113203;1189;24247;-58
2021/09/26 02:44:06;;;;;;;25.50;12.90;;;;;;;16.52;80.77;100648.23;113168;1197;22476;-59
2021/09/26 02:46:45;;;;;;;25.70;13.00;;;;;;;16.51;80.85;100647.95;113075;1197;22426;-56
2021/09/26 02:49:17;;;;;;;29.40;13.60;;;;;;;16.51;80.79;100651.61;113011;1197;22549;-57
2021/09/26 02:51:49;;;;;;;23.10;12.00;;;;;;;16.51;80.89;100654.98;113194;1197;25050;-59
2021/09/26 02:54:23;;;;;;;24.70;11.00;;;;;;;16.51;80.84;100658.58;113681;1190;22423;-57
2021/09/26 02:56:54;;;;;;;29.10;13.50;;;;;;;16.51;80.87;100657.49;113131;1197;24153;-58
2021/09/26 02:59:25;;;;;;;24.10;13.40;;;;;;;16.49;80.90;100656.36;113456;1189;22443;-59
2021/09/26 03:01:56;;;;;;;26.70;13.40;;;;;;;16.49;80.86;100656.55;113064;1197;25070;-56
2021/09/26 03:04:27;;;;;;;27.00;13.20;;;;;;;16.49;80.80;100656.50;113116;1197;22933;-59
2021/09/26 03:06:58;;;;;;;26.40;13.10;;;;;;;16.48;80.91;100660.39;113080;1197;22423;-60
2021/09/26 03:09:29;;;;;;;23.90;13.30;;;;;;;16.48;80.88;100658.23;113083;1197;22453;-59
2021/09/26 03:12:00;;;;;;;22.70;12.50;;;;;;;16.45;80.82;100653.61;113064;1197;25136;-57
2021/09/26 03:14:31;;;;;;;22.60;11.80;;;;;;;16.43;80.99;100654.89;113047;1197;25178;-58
2021/09/26 03:17:02;;;;;;;24.80;13.40;;;;;;;16.42;81.12;100653.15;113042;1197;22496;-58
2021/09/26 03:19:34;;;;;;;24.70;13.30;;;;;;;16.43;81.00;100651.55;113085;1197;22455;-57
2021/09/26 03:22:06;;;;;;;24.40;12.70;;;;;;;16.44;80.95;100652.08;113345;1189;22446;-58
2021/09/26 03:24:40;;;;;;;25.20;13.20;;;;;;;16.43;81.03;100655.86;113086;1197;22611;-58
2021/09/26 03:27:12;;;;;;;22.00;10.40;;;;;;;16.39;81.15;100656.11;113341;1189;22441;-55
2021/09/26 03:29:44;;;;;;;23.30;10.20;;;;;;;16.33;81.31;100662.19;113196;1197;22570;-57
2021/09/26 03:32:25;;;;;;;22.20;11.50;;;;;;;16.23;81.53;100660.95;113267;1197;22440;-61
2021/09/26 03:34:56;;;;;;;25.80;11.20;;;;;;;16.17;81.68;100661.59;113331;1189;22881;-58
2021/09/26 03:37:27;;;;;;;22.90;10.90;;;;;;;16.12;81.91;100661.33;113067;1190;25278;-56
2021/09/26 03:39:58;;;;;;;24.60;11.50;;;;;;;16.08;82.02;100660.54;113196;1197;22446;-58
2021/09/26 03:42:29;;;;;;;25.70;11.40;;;;;;;16.08;82.01;100661.52;113375;1197;25451;-57
2021/09/26 03:45:00;;;;;;;21.80;10.90;;;;;;;16.09;82.01;100657.06;113262;1197;22433;-58
2021/09/26 03:47:31;;;;;;;21.70;11.00;;;;;;;16.11;82.02;100657.79;113109;1197;24081;-57
2021/09/26 03:50:04;;;;;;;23.60;11.60;;;;;;;16.13;82.05;100659.95;113063;1197;22441;-57
2021/09/26 03:55:29;;;;;;;24.70;12.10;;;;;;;16.16;82.08;100661.54;112990;1197;25206;-58
2021/09/26 03:58:00;;;;;;;24.90;13.00;;;;;;;16.17;82.16;100658.88;112959;1189;22453;-59
2021/09/26 04:00:33;;;;;;;29.40;14.00;;;;;;;16.16;82.20;100656.25;113251;1197;25133;-57
2021/09/26 04:03:03;;;;;;;30.20;15.00;;;;;;;16.17;82.21;100650.02;113173;1197;24069;-57
2021/09/26 04:05:56;;;;;;;26.60;13.60;;;;;;;16.18;82.29;100656.98;113137;1197;25474;-59
2021/09/26 04:08:27;;;;;;;28.90;13.50;;;;;;;16.19;82.35;100654.63;113300;1197;22456;-58
2021/09/26 04:10:59;;;;;;;24.70;12.80;;;;;;;16.19;82.35;100652.84;113159;1197;22466;-58
2021/09/26 04:13:31;;;;;;;25.00;12.40;;;;;;;16.20;82.34;100651.11;113145;1190;24057;-58
2021/09/26 04:16:06;;;;;;;25.40;12.60;;;;;;;16.20;82.17;100646.08;113227;1197;25264;-58
2021/09/26 04:18:37;;;;;;;24.50;12.50;;;;;;;16.21;82.10;100645.69;113032;1197;22437;-56
2021/09/26 04:21:08;;;;;;;24.30;13.00;;;;;;;16.23;82.05;100649.06;113100;1197;22518;-57
2021/09/26 04:23:39;;;;;;;25.20;12.50;;;;;;;16.24;81.94;100647.39;113114;1197;23477;-57
2021/09/26 04:26:11;;;;;;;24.50;12.00;;;;;;;16.25;81.90;100647.79;113054;1197;22445;-57
2021/09/26 04:28:42;;;;;;;26.30;12.60;;;;;;;16.25;82.08;100649.89;113150;1197;22441;-56
2021/09/26 04:31:14;;;;;;;25.70;12.90;;;;;;;16.25;82.08;100650.20;113057;1197;22470;-56
2021/09/26 04:33:45;;;;;;;27.00;13.80;;;;;;;16.25;82.20;100654.60;113019;1190;25633;-58
2021/09/26 04:36:16;;;;;;;24.20;13.10;;;;;;;16.25;82.16;100656.75;113114;1197;25114;-58
2021/09/26 04:38:50;;;;;;;28.10;14.00;;;;;;;16.24;82.23;100656.08;113024;1197;25447;-56
2021/09/26 04:41:21;;;;;;;29.70;15.00;;;;;;;16.23;82.25;100657.77;113085;1197;24051;-57
2021/09/26 04:43:52;;;;;;;27.50;13.90;;;;;;;16.22;82.26;100660.07;113225;1189;24051;-57
2021/09/26 04:46:24;;;;;;;26.40;13.30;;;;;;;16.21;82.22;100660.78;113036;1197;25107;-56
2021/09/26 04:48:59;;;;;;;27.00;13.90;;;;;;;16.22;82.14;100664.12;113143;1183;25105;-58
2021/09/26 04:51:30;;;;;;;27.60;13.30;;;;;;;16.22;82.17;100663.77;113360;1189;25366;-57
2021/09/26 04:54:01;;;;;;;26.60;12.50;;;;;;;16.21;82.20;100667.35;113018;1197;22453;-58
2021/09/26 04:56:32;;;;;;;22.70;12.00;;;;;;;16.20;82.16;100671.54;113077;1197;22430;-59
2021/09/26 04:59:04;;;;;;;23.20;12.10;;;;;;;16.19;82.26;100674.56;113094;1197;25103;-58
2021/09/26 05:01:35;;;;;;;24.50;12.20;;;;;;;16.20;82.31;100678.45;113146;1189;22433;-57
2021/09/26 05:04:06;;;;;;;23.60;12.30;;;;;;;16.19;82.45;100681.06;113181;1197;22420;-58
2021/09/26 05:06:37;;;;;;;24.20;11.90;;;;;;;16.19;82.46;100674.81;113212;1197;22529;-57
2021/09/26 05:09:08;;;;;;;26.80;12.40;;;;;;;16.19;82.46;100678.14;113202;1198;22434;-58
2021/09/26 05:11:41;;;;;;;22.60;12.60;;;;;;;16.18;82.54;100679.20;113208;1197;22501;-58
2021/09/26 05:14:12;;;;;;;24.50;11.40;;;;;;;16.19;82.30;100683.16;113241;1197;22988;-57
2021/09/26 05:16:43;;;;;;;22.20;12.30;;;;;;;16.20;82.42;100689.02;113105;1197;22416;-57
2021/09/26 05:19:15;;;;;;;29.10;14.90;;;;;;;16.20;82.55;100688.75;113210;1197;22436;-56
2021/09/26 05:21:46;;;;;;;27.50;14.40;;;;;;;16.20;82.58;100686.08;113137;1197;24072;-57
2021/09/26 05:24:17;;;;;;;27.60;14.10;;;;;;;16.22;82.67;100688.19;113196;1189;22988;-58
2021/09/26 05:26:48;;;;;;;25.00;12.80;;;;;;;16.21;82.69;100688.03;113094;1190;24072;-57
2021/09/26 05:29:20;;;;;;;26.00;12.80;;;;;;;16.22;82.67;100693.01;113159;1197;22536;-58
2021/09/26 05:32:12;;;;;;;22.30;11.10;;;;;;;16.22;82.70;100693.37;113038;1197;22548;-58
2021/09/26 05:34:44;;;;;;;21.70;11.20;;;;;;;16.22;82.61;100697.16;113244;1190;22441;-58
2021/09/26 05:37:17;;;;;;;24.70;13.10;;;;;;;16.22;82.73;100696.59;113258;1197;22434;-57
2021/09/26 05:39:48;;;;;;;24.20;11.30;;;;;;;16.23;82.75;100699.05;113251;1190;25108;-61
2021/09/26 05:42:19;;;;;;;23.60;11.50;;;;;;;16.24;82.82;100698.50;113137;1197;25109;-58
2021/09/26 05:44:50;;;;;;;25.40;12.10;;;;;;;16.24;82.78;100698.34;113165;1197;22891;-57
2021/09/26 05:47:21;;;;;;;24.80;12.20;;;;;;;16.24;82.82;100697.67;113171;1197;22424;-58
2021/09/26 05:49:52;;;;;;;26.40;12.10;;;;;;;16.25;82.88;100695.57;113327;1197;23781;-58
2021/09/26 05:52:23;;;;;;;23.00;11.60;;;;;;;16.26;82.80;100694.30;113361;1197;22420;-57
2021/09/26 05:54:55;;;;;;;22.50;11.40;;;;;;;16.27;82.76;100695.69;113295;1190;25271;-58
2021/09/26 05:57:26;;;;;;;24.00;11.20;;;;;;;16.30;82.61;100697.13;113191;1190;22434;-58
2021/09/26 06:00:06;;;;;;;;;;;;;;;;;;;;;
2021/09/26 06:02:37;;;;;;;24.00;12.50;;;;;;;16.35;82.50;100699.23;113144;1189;22469;-55
2021/09/26 06:05:11;;;;;;;25.90;12.80;;;;;;;16.37;82.55;100706.92;113194;1198;25126;-59
2021/09/26 06:07:42;;;;;;;21.60;11.30;;;;;;;16.39;82.71;100707.66;113292;1197;22437;-59
2021/09/26 06:10:14;;;;;;;24.60;12.30;;;;;;;16.40;82.69;100708.27;113209;1197;22440;-58
2021/09/26 06:12:46;;;;;;;22.90;10.80;;;;;;;16.42;82.57;100708.69;113537;1197;25140;-59
2021/09/26 06:15:18;;;;;;;21.30;10.90;;;;;;;16.45;82.46;100710.85;113495;1197;22468;-57
2021/09/26 06:17:50;;;;;;;23.00;11.10;;;;;;;16.47;82.58;100713.82;113308;1197;24925;-59
2021/09/26 06:20:21;;;;;;;21.30;10.50;;;;;;;16.49;82.42;100714.27;113588;1197;22906;-59
2021/09/26 06:22:52;;;;;;;25.50;12.50;;;;;;;16.53;82.51;100714.84;113151;1197;22418;-56
2021/09/26 06:25:23;;;;;;;23.90;12.30;;;;;;;16.55;82.52;100710.65;113280;1181;25136;-61
2021/09/26 06:27:54;;;;;;;21.70;11.10;;;;;;;16.58;82.42;100710.66;113205;1189;24079;-58
2021/09/26 06:30:26;;;;;;;20.50;10.10;;;;;;;16.62;82.38;100710.25;113271;1198;22485;-58
2021/09/26 06:32:58;;;;;;;19.50;10.50;;;;;;;16.65;82.28;100709.84;113214;1197;25055;-58
2021/09/26 06:35:28;;;;;;;19.20;10.40;;;;;;;16.67;82.14;100703.75;113128;1197;22441;-57
2021/09/26 06:38:00;;;;;;;23.00;10.40;;;;;;;16.70;82.19;100704.98;113091;1190;22558;-57
2021/09/26 06:40:32;;;;;;;21.10;11.10;;;;;;;16.74;82.41;100703.24;113241;1197;22444;-58
2021/09/26 06:43:05;;;;;;;21.40;10.60;;;;;;;16.77;82.32;100705.52;113223;1189;24979;-58
2021/09/26 06:45:36;;;;;;;21.80;10.80;;;;;;;16.81;82.40;100708.48;113107;1197;22415;-58
2021/09/26 06:48:07;;;;;;;19.90;9.40;;;;;;;16.84;82.44;100709.41;113088;1190;24114;-58
2021/09/26 06:50:39;;;;;;;22.90;10.40;;;;;;;16.87;82.32;100710.80;113271;1197;24160;-58
2021/09/26 06:53:10;;;;;;;19.20;10.10;;;;;;;16.91;82.49;100716.75;113077;1190;22459;-59
2021/09/26 06:55:41;;;;;;;20.00;10.10;;;;;;;16.96;82.39;100716.13;113191;1189;22427;-56
2021/09/26 06:58:12;;;;;;;19.40;9.10;;;;;;;17.00;82.29;100717.06;113266;1197;25187;-57
2021/09/26 07:00:43;;;;;;;18.70;9.80;;;;;;;17.03;82.17;100720.05;113151;1189;24037;-62
2021/09/26 07:03:16;;;;;;;19.60;9.30;;;;;;;17.08;82.19;100722.75;113133;1190;22433;-59
2021/09/26 07:05:48;;;;;;;23.00;9.90;;;;;;;17.13;82.06;100718.05;113367;1197;22437;-59
2021/09/26 07:08:18;;;;;;;20.30;9.30;;;;;;;17.17;82.10;100721.06;113097;1197;22440;-59
2021/09/26 07:10:50;;;;;;;18.40;8.60;;;;;;;17.21;82.03;100723.36;113173;1197;22486;-60
2021/09/26 07:13:21;;;;;;;17.70;8.80;;;;;;;17.28;82.20;100726.70;113476;1197;22438;-58
2021/09/26 07:15:53;;;;;;;17.60;8.40;;;;;;;17.34;82.06;100728.80;113179;1189;22942;-60
2021/09/26 07:18:24;;;;;;;21.20;8.90;;;;;;;17.38;81.78;100728.54;113294;1197;22453;-61
2021/09/26 07:20:55;;;;;;;18.30;9.10;;;;;;;17.43;81.69;100731.41;113487;1197;25277;-58
2021/09/26 07:23:27;;;;;;;21.00;7.70;;;;;;;17.48;81.71;100733.58;113134;1197;22485;-58
2021/09/26 07:25:58;;;;;;;16.50;7.90;;;;;;;17.55;81.59;100733.83;112979;1197;22455;-58
2021/09/26 07:28:29;;;;;;;18.90;8.90;;;;;;;17.61;81.50;100737.58;113163;1197;24031;-59
2021/09/26 07:31:00;;;;;;;15.70;7.30;;;;;;;17.66;81.23;100739.98;113228;1197;25192;-59
2021/09/26 07:33:32;;;;;;;14.60;6.90;;;;;;;17.73;81.13;100739.80;113084;1197;22530;-58
2021/09/26 07:36:04;;;;;;;18.10;7.80;;;;;;;17.79;80.93;100740.41;113354;1190;25406;-58
2021/09/26 07:38:38;;;;;;;13.90;6.30;;;;;;;17.85;80.80;100748.36;113147;1198;24586;-59
2021/09/26 07:41:09;;;;;;;14.50;5.80;;;;;;;17.93;80.71;100752.86;112967;1197;22432;-59
2021/09/26 07:43:40;;;;;;;14.10;5.50;;;;;;;18.01;80.45;100751.70;113068;1197;22473;-58
2021/09/26 07:46:13;;;;;;;21.60;10.00;;;;;;;18.07;80.11;100755.95;113048;1197;23160;-60
2021/09/26 07:48:44;;;;;;;27.70;13.30;;;;;;;18.15;79.95;100760.90;113271;1190;22449;-59
2021/09/26 07:51:17;;;;;;;20.60;7.40;;;;;;;18.23;79.80;100762.98;113491;1189;22541;-62
2021/09/26 07:53:49;;;;;;;13.50;5.20;;;;;;;18.31;79.59;100761.91;113387;1197;22428;-60
2021/09/26 07:56:22;;;;;;;12.70;5.20;;;;;;;18.40;79.20;100760.34;113488;1197;24169;-59
2021/09/26 07:58:53;;;;;;;10.40;4.60;;;;;;;18.48;79.09;100765.06;113621;1197;22419;-60
2021/09/26 08:01:25;;;;;;;10.00;4.20;;;;;;;18.57;79.02;100765.13;113545;1197;23818;-60
2021/09/26 08:03:58;;;;;;;8.30;3.00;;;;;;;18.67;78.88;100764.66;113449;1197;22674;-60
2021/09/26 08:06:31;;;;;;;9.50;3.30;;;;;;;18.75;78.28;100768.52;113208;1197;22888;-60
2021/09/26 08:09:04;;;;;;;8.70;2.60;;;;;;;18.84;77.82;100764.41;113290;1197;22434;-65
2021/09/26 08:11:35;;;;;;;10.40;3.50;;;;;;;18.93;77.51;100766.04;113133;1189;25031;-62
2021/09/26 08:14:07;;;;;;;8.20;2.60;;;;;;;19.02;77.44;100760.52;113099;1197;22441;-60
2021/09/26 08:16:39;;;;;;;7.10;2.20;;;;;;;19.12;77.27;100762.55;113173;1197;22444;-59
2021/09/26 08:19:10;;;;;;;6.80;2.20;;;;;;;19.18;76.74;100766.02;113536;1197;22434;-62
2021/09/26 08:21:41;;;;;;;6.30;2.00;;;;;;;19.21;76.26;100764.75;113096;1197;25358;-64
2021/09/26 08:24:14;;;;;;;6.80;2.50;;;;;;;19.20;75.86;100764.29;113056;1190;24081;-63
2021/09/26 08:26:47;;;;;;;7.40;1.70;;;;;;;19.20;75.59;100766.35;113186;1190;24088;-63
2021/09/26 08:29:19;;;;;;;5.60;1.80;;;;;;;19.19;75.49;100768.52;113188;1197;25204;-62
2021/09/26 08:31:50;;;;;;;7.80;2.20;;;;;;;19.19;75.29;100766.00;113366;1197;22440;-64
2021/09/26 08:34:21;;;;;;;6.30;1.90;;;;;;;19.21;75.18;100771.13;113188;1198;22484;-62
2021/09/26 08:36:53;;;;;;;5.90;1.90;;;;;;;19.23;74.77;100769.46;113292;1197;25003;-61
2021/09/26 08:39:25;;;;;;;6.20;1.80;;;;;;;19.27;74.56;100766.91;113361;1197;22571;-62
2021/09/26 08:41:57;;;;;;;7.20;2.10;;;;;;;19.28;74.45;100763.86;113177;1197;24083;-61
2021/09/26 08:44:30;;;;;;;6.20;2.00;;;;;;;19.31;74.17;100763.02;113291;1189;25119;-60
2021/09/26 08:47:01;;;;;;;5.80;1.80;;;;;;;19.34;74.00;100767.08;113097;1197;22423;-65
2021/09/26 08:49:33;;;;;;;6.70;1.80;;;;;;;19.39;73.68;100768.19;112981;1198;22471;-61
2021/09/26 08:52:04;;;;;;;6.90;1.80;;;;;;;19.45;73.72;100768.64;113158;1197;22470;-61
2021/09/26 08:54:36;;;;;;;7.70;2.30;;;;;;;19.52;73.60;100772.15;114772;1197;22436;-62
2021/09/26 08:57:07;;;;;;;6.30;1.60;;;;;;;19.59;73.50;100772.95;113418;1197;22504;-61
2021/09/26 08:59:38;;;;;;;8.10;2.40;;;;;;;19.65;73.06;100775.25;113196;1198;22441;-59
2021/09/26 09:02:10;;;;;;;7.00;2.40;;;;;;;19.70;72.88;100771.36;113359;1197;26303;-62
2021/09/26 09:04:44;;;;;;;10.70;3.10;;;;;;;19.75;72.68;100774.48;113089;1198;22445;-59
2021/09/26 09:07:18;;;;;;;11.80;3.20;;;;;;;19.80;72.42;100770.11;113162;1197;24050;-59
2021/09/26 09:09:58;;;;;;;6.90;2.10;;;;;;;19.85;72.37;100768.41;113090;1189;24539;-57
2021/09/26 09:12:31;;;;;;;6.80;2.00;;;;;;;19.89;72.11;100766.94;113070;1189;25148;-61
2021/09/26 09:15:05;;;;;;;5.40;1.70;;;;;;;19.93;72.12;100764.00;113392;1197;23327;-61
2021/09/26 09:17:39;;;;;;;6.10;1.70;;;;;;;19.98;71.72;100759.37;113348;1197;22594;-60
2021/09/26 09:20:31;;;;;;;4.30;1.50;;;;;;;20.03;71.61;100760.02;113310;1190;22423;-60
2021/09/26 09:23:13;;;;;;;5.20;1.60;;;;;;;20.09;71.30;100761.50;113295;1197;26591;-60
2021/09/26 09:25:47;;;;;;;5.10;1.40;;;;;;;20.16;70.48;100758.94;113020;1198;22478;-62
2021/09/26 09:28:22;;;;;;;5.00;1.20;;;;;;;20.21;70.29;100759.33;113271;1190;22413;-60
2021/09/26 09:30:57;;;;;;;6.70;1.40;;;;;;;20.25;70.00;100759.95;113042;1197;25065;-61
2021/09/26 09:33:38;;;;;;;4.20;1.10;;;;;;;20.28;69.17;100754.01;113022;1198;22413;-59
2021/09/26 09:36:20;;;;;;;2.80;1.00;;;;;;;20.29;69.00;100755.46;113079;1174;25017;-61
2021/09/26 09:38:53;;;;;;;3.30;0.90;;;;;;;20.36;69.02;100756.98;113085;1198;25167;-60
2021/09/26 09:41:40;;;;;;;2.90;0.90;;;;;;;20.47;68.58;100756.58;113102;1189;25104;-60
2021/09/26 09:44:14;;;;;;;5.60;1.00;;;;;;;20.56;68.29;100757.02;113124;1198;22428;-61
2021/09/26 09:46:48;;;;;;;3.50;0.80;;;;;;;20.62;67.61;100759.23;112987;1190;22510;-61
2021/09/26 09:49:22;;;;;;;3.80;1.10;;;;;;;20.65;67.66;100754.38;113049;1197;22503;-61
2021/09/26 09:51:56;;;;;;;2.90;1.00;;;;;;;20.69;67.60;100750.75;113300;1197;22456;-59
2021/09/26 09:54:36;;;;;;;3.40;0.90;;;;;;;20.73;67.36;100743.11;113416;1190;22419;-61
2021/09/26 09:57:12;;;;;;;;;;;;;;;20.79;66.41;100743.34;113138;1190;24241;-61
2021/09/26 09:59:46;;;;;;;4.30;1.00;;;;;;;20.83;66.67;100744.36;113085;1198;23151;-60
2021/09/26 10:02:19;;;;;;;3.80;1.10;;;;;;;20.89;66.27;100741.17;113250;1197;22996;-61
2021/09/26 10:04:50;;;;;;;3.00;0.90;;;;;;;20.94;66.29;100742.64;113144;1198;22613;-61
2021/09/26 10:07:26;;;;;;;6.50;1.40;;;;;;;21.00;65.82;100738.38;113003;1190;25212;-59
2021/09/26 10:10:00;;;;;;;5.20;1.10;;;;;;;21.04;65.37;100737.88;113034;1190;22429;-61
2021/09/26 10:12:36;;;;;;;3.50;1.00;;;;;;;21.09;65.18;100740.52;113156;1197;25312;-60
2021/09/26 10:15:08;;;;;;;5.90;1.10;;;;;;;21.13;65.46;100743.25;113472;1197;24199;-60
2021/09/26 10:17:39;;;;;;;7.60;1.40;;;;;;;21.17;65.05;100736.38;113258;1198;22801;-59
2021/09/26 10:20:17;;;;;;;8.00;1.40;;;;;;;21.19;64.90;100736.80;113170;1197;22644;-62
2021/09/26 10:23:01;;;;;;;5.50;1.10;;;;;;;21.24;65.00;100734.51;113519;1197;25305;-62
2021/09/26 10:25:33;;;;;;;3.50;1.10;;;;;;;21.30;64.83;100737.86;113205;1198;22447;-60
2021/09/26 10:28:05;;;;;;;5.90;1.20;;;;;;;21.33;64.63;100732.19;113108;1190;22444;-61
2021/09/26 10:30:36;;;;;;;6.30;1.10;;;;;;;21.36;64.82;100733.95;113286;1197;22444;-62
2021/09/26 10:33:08;;;;;;;3.70;1.10;;;;;;;21.42;64.17;100730.90;113143;1198;22450;-61
2021/09/26 10:35:40;;;;;;;5.20;1.00;;;;;;;21.46;64.16;100729.84;113125;1198;24183;-59
2021/09/26 10:38:12;;;;;;;4.30;1.10;;;;;;;21.53;63.70;100728.20;113019;1190;22430;-67
2021/09/26 10:40:43;;;;;;;4.90;1.00;;;;;;;21.57;63.66;100736.35;112878;1197;25065;-62
2021/09/26 10:43:24;;;;;;;4.90;1.40;;;;;;;21.58;63.41;100730.90;113422;1190;25102;-62
2021/09/26 10:46:15;;;;;;;6.60;1.60;;;;;;;21.60;63.09;100731.51;113294;1190;22419;-62
2021/09/26 10:49:05;;;;;;;9.40;1.50;;;;;;;21.64;63.02;100728.52;113266;1190;22423;-62
2021/09/26 10:51:55;;;;;;;6.20;1.50;;;;;;;21.67;63.00;100723.20;115929;1176;85815;-80
2021/09/26 10:54:32;;;;;;;;;;;;;;;21.73;62.78;100720.31;115544;1197;22445;-80
2021/09/26 10:57:26;;;;;;;3.40;1.10;;;;;;;21.75;62.54;100726.10;114798;1197;22487;-81
2021/09/26 11:00:01;;;;;;;5.00;1.20;;;;;;;21.78;62.22;100720.37;114978;1198;23757;-80
2021/09/26 11:02:54;;;;;;;3.70;1.10;;;;;;;21.79;62.01;100720.04;114812;1198;22427;-80
2021/09/26 11:05:51;;;;;;;4.00;1.20;;;;;;;21.83;62.14;100717.97;115259;1197;22478;-81
2021/09/26 11:08:44;;;;;;;5.60;1.10;;;;;;;21.83;62.02;100714.60;115023;1190;23288;-80
2021/09/26 11:14:22;;;;;;;3.60;1.20;;;;;;;21.94;62.05;100713.31;111884;1212;545216;-79
2021/09/26 11:16:56;;;;;;;4.50;1.20;;;;;;;21.98;61.75;100712.96;114004;1202;22434;-80
2021/09/26 11:19:30;;;;;;;4.40;1.50;;;;;;;22.02;61.67;100712.05;114095;1201;22610;-79
2021/09/26 11:22:06;;;;;;;6.00;1.30;;;;;;;22.06;61.67;100707.84;114090;1201;25205;-80
2021/09/26 11:25:00;;;;;;;5.00;1.50;;;;;;;22.10;61.31;100709.98;114242;1202;22596;-79
2021/09/26 11:27:38;;;;;;;4.10;1.10;;;;;;;22.13;61.44;100709.35;113573;1201;24092;-80
2021/09/26 11:30:30;;;;;;;4.10;1.00;;;;;;;22.18;61.33;100705.63;113683;1201;25122;-80
2021/09/26 11:33:04;;;;;;;6.40;1.50;;;;;;;22.21;60.63;100704.36;114143;1202;22466;-79
2021/09/26 11:35:38;;;;;;;5.30;1.20;;;;;;;22.26;60.44;100704.16;113740;1202;22478;-79
2021/09/26 11:38:13;;;;;;;4.60;1.50;;;;;;;22.26;60.12;100701.20;113726;1201;22556;-79
2021/09/26 11:41:04;;;;;;;4.60;1.40;;;;;;;22.26;60.00;100702.61;113763;1201;24050;-79
2021/09/26 11:43:45;;;;;;;5.30;1.30;;;;;;;22.25;60.08;100699.98;113876;1201;25667;-79
2021/09/26 11:46:25;;;;;;;5.60;1.10;;;;;;;22.26;59.57;100695.41;113621;1201;22488;-78